createdAt,value
2024-04-30T00:00:49.000Z,14.9
2024-04-30T00:02:05.546Z,14.9
2024-04-30T00:03:21.829Z,14.9
2024-04-30T00:04:38.000Z,14.8
2024-04-30T00:05:54.000Z,14.8
2024-04-30T00:07:10.721Z,14.8
2024-04-30T00:08:27.000Z,14.8
2024-04-30T00:09:43.314Z,14.8
2024-04-30T00:10:59.000Z,14.8
2024-04-30T00:12:15.893Z,14.8
2024-04-30T00:13:32.189Z,14.8
2024-04-30T00:14:48.476Z,14.8
2024-04-30T00:16:04.000Z,14.8
2024-04-30T00:17:21.000Z,14.7
2024-04-30T00:18:37.000Z,14.7
2024-04-30T00:19:53.000Z,14.7
2024-04-30T00:21:10.000Z,14.7
2024-04-30T00:22:26.374Z,14.7
2024-04-30T00:23:42.000Z,14.7
2024-04-30T00:24:58.000Z,14.7
2024-04-30T00:26:15.000Z,14.7
2024-04-30T00:27:31.000Z,14.6
2024-04-30T00:28:47.000Z,14.6
2024-04-30T00:30:04.128Z,14.6
2024-04-30T00:31:20.000Z,14.5
2024-04-30T00:32:35.000Z,14.6
2024-04-30T00:33:52.014Z,14.5
2024-04-30T00:35:08.310Z,14.5
2024-04-30T00:36:24.000Z,14.5
2024-04-30T00:37:40.000Z,14.4
2024-04-30T00:38:57.000Z,14.4
2024-04-30T00:40:13.000Z,14.4
2024-04-30T00:41:29.000Z,14.4
2024-04-30T00:42:46.070Z,14.4
2024-04-30T00:44:02.371Z,14.4
2024-04-30T00:45:18.000Z,14.3
2024-04-30T00:46:34.000Z,14.3
2024-04-30T00:47:51.000Z,14.3
2024-04-30T00:49:06.000Z,14.3
2024-04-30T00:50:22.000Z,14.3
2024-04-30T00:51:39.000Z,14.2
2024-04-30T00:52:55.000Z,14.3
2024-04-30T00:54:11.733Z,14.3
2024-04-30T00:55:28.024Z,14.3
2024-04-30T00:56:44.000Z,14.2
2024-04-30T00:58:00.000Z,14.2
2024-04-30T00:59:16.000Z,14.2
2024-04-30T01:00:33.000Z,14.2
2024-04-30T01:01:49.000Z,14.2
2024-04-30T01:03:05.000Z,14.2
2024-04-30T01:04:22.074Z,14.2
2024-04-30T01:05:37.390Z,14.2
2024-04-30T01:06:53.690Z,14.1
2024-04-30T01:08:09.976Z,14.1
2024-04-30T01:09:26.000Z,14.1
2024-04-30T01:10:42.000Z,14
2024-04-30T01:11:58.000Z,14.1
2024-04-30T01:13:15.000Z,14.1
2024-04-30T01:14:31.000Z,14
2024-04-30T01:15:47.000Z,14.1
2024-04-30T01:17:04.039Z,14.1
2024-04-30T01:18:20.333Z,14.1
2024-04-30T01:19:36.000Z,14.1
2024-04-30T01:20:52.000Z,14.1
2024-04-30T01:22:09.000Z,14.1
2024-04-30T01:23:24.000Z,14.1
2024-04-30T01:24:40.000Z,14
2024-04-30T01:25:57.000Z,14.1
2024-04-30T01:27:13.393Z,14.1
2024-04-30T01:28:29.693Z,14.1
2024-04-30T01:29:45.000Z,14.1
2024-04-30T01:31:02.000Z,14.1
2024-04-30T01:32:18.000Z,14.1
2024-04-30T01:33:34.853Z,14.1
2024-04-30T01:34:51.000Z,14.1
2024-04-30T01:36:07.000Z,14.1
2024-04-30T01:37:23.738Z,14.1
2024-04-30T01:38:40.033Z,14.1
2024-04-30T01:39:55.340Z,14.1
2024-04-30T01:41:11.638Z,14.1
2024-04-30T01:42:27.918Z,14.1
2024-04-30T01:43:44.000Z,14.1
2024-04-30T01:45:00.000Z,14.1
2024-04-30T01:46:16.000Z,14.1
2024-04-30T01:47:33.000Z,14
2024-04-30T01:48:49.396Z,14
2024-04-30T01:50:05.000Z,14
2024-04-30T01:51:21.983Z,14
2024-04-30T01:52:38.000Z,14
2024-04-30T01:53:54.000Z,14
2024-04-30T01:55:10.000Z,13.9
2024-04-30T01:56:26.000Z,13.9
2024-04-30T01:57:42.000Z,13.9
2024-04-30T01:58:58.000Z,13.9
2024-04-30T02:00:15.055Z,13.9
2024-04-30T02:01:31.344Z,13.9
2024-04-30T02:02:47.000Z,13.8
2024-04-30T02:04:03.000Z,13.8
2024-04-30T02:05:20.000Z,13.8
2024-04-30T02:06:36.000Z,13.8
2024-04-30T02:07:52.000Z,13.8
2024-04-30T02:09:09.000Z,13.8
2024-04-30T02:10:25.399Z,13.8
2024-04-30T02:11:41.682Z,13.7
2024-04-30T02:12:56.962Z,13.7
2024-04-30T02:14:13.000Z,13.7
2024-04-30T02:15:29.000Z,13.6
2024-04-30T02:16:45.883Z,13.6
2024-04-30T02:18:02.000Z,13.5
2024-04-30T02:19:18.467Z,13.5
2024-04-30T02:20:34.752Z,13.6
2024-04-30T02:21:51.041Z,13.5
2024-04-30T02:23:07.343Z,13.5
2024-04-30T02:24:23.655Z,13.5
2024-04-30T02:25:39.000Z,13.5
2024-04-30T02:26:56.000Z,13.5
2024-04-30T02:28:12.000Z,13.4
2024-04-30T02:29:27.000Z,13.4
2024-04-30T02:30:44.000Z,13.4
2024-04-30T02:32:00.000Z,13.4
2024-04-30T02:33:16.660Z,13.4
2024-04-30T02:34:32.986Z,13.4
2024-04-30T02:35:49.000Z,13.4
2024-04-30T02:37:05.000Z,13.3
2024-04-30T02:38:21.000Z,13.3
2024-04-30T02:39:38.000Z,13.3
2024-04-30T02:40:54.000Z,13.3
2024-04-30T02:42:10.000Z,13.3
2024-04-30T02:43:27.051Z,13.3
2024-04-30T02:44:43.337Z,13.3
2024-04-30T02:45:58.647Z,13.2
2024-04-30T02:47:14.941Z,13.2
2024-04-30T02:48:31.000Z,13.2
2024-04-30T02:49:47.000Z,13.2
2024-04-30T02:51:03.000Z,13.1
2024-04-30T02:52:20.000Z,13.1
2024-04-30T02:53:36.000Z,13.1
2024-04-30T02:54:52.701Z,13.1
2024-04-30T02:56:09.002Z,13.1
2024-04-30T02:57:25.294Z,13.1
2024-04-30T02:58:41.573Z,13
2024-04-30T02:59:57.846Z,13.1
2024-04-30T03:01:14.000Z,13
2024-04-30T03:02:29.000Z,13
2024-04-30T03:03:45.000Z,13
2024-04-30T03:05:02.068Z,13
2024-04-30T03:06:18.000Z,13
2024-04-30T03:07:34.000Z,12.9
2024-04-30T03:08:50.840Z,12.9
2024-04-30T03:10:07.085Z,12.9
2024-04-30T03:11:23.000Z,12.9
2024-04-30T03:12:39.000Z,12.8
2024-04-30T03:13:55.000Z,12.8
2024-04-30T03:15:12.000Z,12.9
2024-04-30T03:16:28.000Z,12.8
2024-04-30T03:17:44.000Z,12.8
2024-04-30T03:18:59.000Z,12.8
2024-04-30T03:20:16.024Z,12.8
2024-04-30T03:21:32.269Z,12.8
2024-04-30T03:22:48.000Z,12.8
2024-04-30T03:24:04.000Z,12.8
2024-04-30T03:25:20.000Z,12.9
2024-04-30T03:26:37.000Z,12.8
2024-04-30T03:27:53.000Z,12.8
2024-04-30T03:29:09.000Z,12.8
2024-04-30T03:30:25.942Z,12.8
2024-04-30T03:31:42.148Z,12.8
2024-04-30T03:32:58.432Z,12.8
2024-04-30T03:34:14.670Z,12.8
2024-04-30T03:35:29.000Z,12.8
2024-04-30T03:36:46.000Z,12.8
2024-04-30T03:38:02.000Z,12.8
2024-04-30T03:39:18.000Z,12.7
2024-04-30T03:40:34.000Z,12.7
2024-04-30T03:41:50.000Z,12.7
2024-04-30T03:43:06.382Z,12.7
2024-04-30T03:44:22.619Z,12.7
2024-04-30T03:45:38.000Z,12.7
2024-04-30T03:46:55.000Z,12.7
2024-04-30T03:48:11.000Z,12.7
2024-04-30T03:49:27.000Z,12.8
2024-04-30T03:50:43.000Z,12.7
2024-04-30T03:52:00.005Z,12.8
2024-04-30T03:53:16.282Z,12.7
2024-04-30T03:54:32.524Z,12.8
2024-04-30T03:55:48.773Z,12.7
2024-04-30T03:57:05.000Z,12.7
2024-04-30T03:58:20.000Z,12.7
2024-04-30T03:59:36.000Z,12.7
2024-04-30T04:00:52.000Z,12.7
2024-04-30T04:02:08.000Z,12.7
2024-04-30T04:03:25.225Z,12.8
2024-04-30T04:04:41.000Z,12.7
2024-04-30T04:05:57.705Z,12.8
2024-04-30T04:07:13.000Z,12.7
2024-04-30T04:08:30.173Z,12.7
2024-04-30T04:09:46.000Z,12.7
2024-04-30T04:11:02.000Z,12.7
2024-04-30T04:12:18.000Z,12.8
2024-04-30T04:13:35.000Z,12.8
2024-04-30T04:14:51.000Z,12.8
2024-04-30T04:17:23.000Z,12.8
2024-04-30T04:18:40.000Z,12.8
2024-04-30T04:19:56.000Z,12.8
2024-04-30T04:21:12.000Z,12.9
2024-04-30T04:22:28.000Z,12.9
2024-04-30T04:23:45.000Z,12.9
2024-04-30T04:25:01.405Z,12.9
2024-04-30T04:26:17.660Z,12.9
2024-04-30T04:27:33.842Z,12.9
2024-04-30T04:28:50.128Z,12.9
2024-04-30T04:30:06.000Z,12.9
2024-04-30T04:31:21.000Z,13
2024-04-30T04:32:37.000Z,13
2024-04-30T04:33:54.000Z,13.1
2024-04-30T04:35:10.000Z,13.1
2024-04-30T04:36:26.579Z,13.1
2024-04-30T04:37:42.000Z,13.2
2024-04-30T04:38:59.000Z,13.2
2024-04-30T04:40:15.000Z,13.2
2024-04-30T04:41:31.000Z,13.3
2024-04-30T04:42:47.000Z,13.3
2024-04-30T04:44:04.000Z,13.4
2024-04-30T04:45:20.000Z,13.5
2024-04-30T04:46:36.487Z,13.5
2024-04-30T04:47:52.000Z,13.6
2024-04-30T04:49:09.000Z,13.6
2024-04-30T04:50:25.000Z,13.6
2024-04-30T04:51:41.000Z,13.6
2024-04-30T04:52:57.000Z,13.7
2024-04-30T04:54:14.000Z,13.7
2024-04-30T04:55:30.000Z,13.8
2024-04-30T04:56:46.524Z,13.8
2024-04-30T04:58:02.000Z,13.8
2024-04-30T04:59:19.007Z,13.8
2024-04-30T05:00:35.251Z,13.9
2024-04-30T05:01:51.000Z,13.9
2024-04-30T05:03:07.000Z,13.9
2024-04-30T05:04:22.000Z,14
2024-04-30T05:05:39.000Z,14
2024-04-30T05:06:55.000Z,14
2024-04-30T05:08:11.000Z,14.1
2024-04-30T05:09:27.947Z,14.1
2024-04-30T05:10:44.000Z,14.2
2024-04-30T05:12:00.000Z,14.2
2024-04-30T05:13:16.000Z,14.2
2024-04-30T05:14:32.000Z,14.3
2024-04-30T05:15:49.000Z,14.3
2024-04-30T05:17:05.000Z,14.3
2024-04-30T05:18:21.612Z,14.3
2024-04-30T05:19:37.857Z,14.3
2024-04-30T05:20:53.000Z,14.3
2024-04-30T05:22:09.335Z,14.3
2024-04-30T05:23:25.000Z,14.3
2024-04-30T05:24:41.000Z,14.4
2024-04-30T05:25:58.000Z,14.4
2024-04-30T05:27:14.294Z,14.4
2024-04-30T05:28:30.000Z,14.4
2024-04-30T05:29:46.776Z,14.4
2024-04-30T05:31:03.000Z,14.4
2024-04-30T05:32:19.260Z,14.5
2024-04-30T05:33:35.494Z,14.6
2024-04-30T05:34:51.000Z,14.6
2024-04-30T05:36:07.000Z,14.6
2024-04-30T05:37:23.000Z,14.7
2024-04-30T05:38:39.000Z,14.7
2024-04-30T05:39:55.000Z,14.7
2024-04-30T05:41:11.941Z,14.8
2024-04-30T05:42:28.189Z,14.8
2024-04-30T05:43:44.000Z,14.8
2024-04-30T05:45:00.662Z,14.9
2024-04-30T05:46:16.000Z,14.9
2024-04-30T05:47:33.000Z,15
2024-04-30T05:48:49.000Z,15
2024-04-30T05:50:05.000Z,15.1
2024-04-30T05:51:21.854Z,15.1
2024-04-30T05:52:38.105Z,15.1
2024-04-30T05:53:53.353Z,15.1
2024-04-30T05:55:09.000Z,15.2
2024-04-30T05:56:25.830Z,15.2
2024-04-30T05:57:42.000Z,15.2
2024-04-30T05:58:58.000Z,15.2
2024-04-30T06:00:14.561Z,15.3
2024-04-30T06:01:30.000Z,15.3
2024-04-30T06:02:47.043Z,15.3
2024-04-30T06:04:03.000Z,15.3
2024-04-30T06:05:19.519Z,15.4
2024-04-30T06:06:35.000Z,15.4
2024-04-30T06:07:51.991Z,15.4
2024-04-30T06:09:08.000Z,15.5
2024-04-30T06:10:23.490Z,15.6
2024-04-30T06:11:39.723Z,15.6
2024-04-30T06:12:55.961Z,15.6
2024-04-30T06:14:12.162Z,15.7
2024-04-30T06:15:28.438Z,15.7
2024-04-30T06:16:44.677Z,15.8
2024-04-30T06:18:00.921Z,15.8
2024-04-30T06:19:17.165Z,15.8
2024-04-30T06:20:33.000Z,15.9
2024-04-30T06:21:49.000Z,15.9
2024-04-30T06:23:05.881Z,15.9
2024-04-30T06:24:22.116Z,16
2024-04-30T06:25:38.365Z,16
2024-04-30T06:26:53.573Z,16
2024-04-30T06:28:09.871Z,16
2024-04-30T06:29:26.000Z,16.1
2024-04-30T06:30:42.349Z,16.1
2024-04-30T06:31:58.000Z,16.1
2024-04-30T06:33:14.000Z,16.1
2024-04-30T06:34:31.000Z,16.2
2024-04-30T06:35:47.298Z,16.2
2024-04-30T06:37:03.527Z,16.2
2024-04-30T06:38:19.777Z,16.3
2024-04-30T06:39:36.000Z,16.3
2024-04-30T06:40:52.000Z,16.3
2024-04-30T06:42:08.000Z,16.4
2024-04-30T06:43:23.755Z,16.4
2024-04-30T06:44:39.997Z,16.4
2024-04-30T06:45:56.234Z,16.5
2024-04-30T06:47:12.472Z,16.5
2024-04-30T06:48:28.699Z,16.5
2024-04-30T06:49:44.954Z,16.5
2024-04-30T06:51:01.194Z,16.5
2024-04-30T06:52:17.000Z,16.5
2024-04-30T06:53:33.673Z,16.6
2024-04-30T06:54:49.000Z,16.5
2024-04-30T06:56:06.000Z,16.6
2024-04-30T06:57:22.000Z,16.6
2024-04-30T06:58:38.632Z,16.6
2024-04-30T06:59:53.892Z,16.7
2024-04-30T07:02:26.000Z,16.7
2024-04-30T07:03:42.000Z,16.7
2024-04-30T07:04:58.843Z,16.7
2024-04-30T07:06:15.076Z,16.8
2024-04-30T07:07:31.327Z,16.8
2024-04-30T07:08:47.556Z,16.8
2024-04-30T07:10:03.793Z,16.9
2024-04-30T07:11:20.032Z,16.9
2024-04-30T07:12:36.225Z,16.9
2024-04-30T07:13:52.523Z,16.9
2024-04-30T07:15:08.750Z,17
2024-04-30T07:16:24.009Z,17
2024-04-30T07:17:40.000Z,17
2024-04-30T07:18:56.000Z,17
2024-04-30T07:20:12.000Z,17.1
2024-04-30T07:21:28.977Z,17.1
2024-04-30T07:22:45.203Z,17.2
2024-04-30T07:24:01.451Z,17.2
2024-04-30T07:25:17.000Z,17.3
2024-04-30T07:26:33.000Z,17.3
2024-04-30T07:27:50.000Z,17.3
2024-04-30T07:29:06.408Z,17.4
2024-04-30T07:30:22.000Z,17.4
2024-04-30T07:31:38.876Z,17.5
2024-04-30T07:32:54.000Z,17.5
2024-04-30T07:34:10.377Z,17.5
2024-04-30T07:35:26.000Z,17.6
2024-04-30T07:36:42.853Z,17.6
2024-04-30T07:37:59.083Z,17.7
2024-04-30T07:39:15.325Z,17.7
2024-04-30T07:40:31.564Z,17.8
2024-04-30T07:41:47.748Z,17.9
2024-04-30T07:43:04.000Z,17.9
2024-04-30T07:44:20.283Z,17.9
2024-04-30T07:45:36.000Z,18
2024-04-30T07:46:52.760Z,18.1
2024-04-30T07:48:08.000Z,18.1
2024-04-30T07:49:24.258Z,18.2
2024-04-30T07:50:40.486Z,18.2
2024-04-30T07:51:56.735Z,18.3
2024-04-30T07:53:12.969Z,18.4
2024-04-30T07:54:29.206Z,18.4
2024-04-30T07:55:45.447Z,18.4
2024-04-30T07:57:00.000Z,18.5
2024-04-30T07:58:16.000Z,18.5
2024-04-30T07:59:33.179Z,18.6
2024-04-30T08:00:49.000Z,18.6
2024-04-30T08:02:05.676Z,18.7
2024-04-30T08:03:21.914Z,18.7
2024-04-30T08:04:38.137Z,18.8
2024-04-30T08:05:54.000Z,18.8
2024-04-30T08:07:10.565Z,18.8
2024-04-30T08:08:26.000Z,18.9
2024-04-30T08:09:43.094Z,18.9
2024-04-30T08:10:59.000Z,18.9
2024-04-30T08:12:15.587Z,18.9
2024-04-30T08:13:30.000Z,19
2024-04-30T08:14:47.068Z,19.1
2024-04-30T08:16:03.318Z,19.1
2024-04-30T08:17:19.557Z,19.1
2024-04-30T08:18:35.000Z,19.2
2024-04-30T08:19:52.040Z,19.2
2024-04-30T08:21:08.000Z,19.3
2024-04-30T08:22:24.449Z,19.3
2024-04-30T08:23:40.000Z,19.4
2024-04-30T08:24:56.989Z,19.5
2024-04-30T08:26:13.219Z,19.5
2024-04-30T08:27:29.476Z,19.5
2024-04-30T08:28:45.706Z,19.6
2024-04-30T08:30:00.967Z,19.6
2024-04-30T08:31:17.000Z,19.7
2024-04-30T08:32:33.438Z,19.7
2024-04-30T08:35:05.924Z,19.8
2024-04-30T08:36:22.159Z,19.9
2024-04-30T08:37:38.401Z,20
2024-04-30T08:38:54.000Z,20
2024-04-30T08:40:10.880Z,20
2024-04-30T08:41:27.000Z,20.1
2024-04-30T08:42:43.364Z,20.2
2024-04-30T08:43:59.590Z,20.3
2024-04-30T08:45:15.831Z,20.4
2024-04-30T08:46:31.081Z,20.5
2024-04-30T08:47:47.330Z,20.6
2024-04-30T08:49:03.000Z,20.6
2024-04-30T08:50:19.798Z,20.7
2024-04-30T08:51:36.040Z,20.8
2024-04-30T08:52:52.284Z,20.9
2024-04-30T08:54:08.527Z,21
2024-04-30T08:55:24.766Z,21.1
2024-04-30T08:56:40.000Z,21.1
2024-04-30T08:57:57.234Z,21.2
2024-04-30T08:59:13.487Z,21.3
2024-04-30T09:00:29.729Z,21.4
2024-04-30T09:01:45.955Z,21.5
2024-04-30T09:03:01.212Z,21.5
2024-04-30T09:04:17.000Z,21.6
2024-04-30T09:05:33.704Z,21.7
2024-04-30T09:06:49.000Z,21.7
2024-04-30T09:08:06.166Z,21.7
2024-04-30T09:09:22.404Z,21.8
2024-04-30T09:10:38.651Z,21.8
2024-04-30T09:11:54.000Z,21.7
2024-04-30T09:13:11.132Z,21.7
2024-04-30T09:14:27.000Z,21.7
2024-04-30T09:15:43.605Z,21.7
2024-04-30T09:16:59.000Z,21.7
2024-04-30T09:18:16.090Z,21.7
2024-04-30T09:19:31.351Z,21.8
2024-04-30T09:20:47.529Z,21.8
2024-04-30T09:22:03.828Z,21.8
2024-04-30T09:23:20.059Z,21.8
2024-04-30T09:24:36.000Z,21.9
2024-04-30T09:25:52.536Z,22
2024-04-30T09:27:08.000Z,22
2024-04-30T09:28:25.019Z,22.1
2024-04-30T09:29:41.000Z,22.1
2024-04-30T09:30:57.493Z,22.1
2024-04-30T09:32:13.742Z,22.1
2024-04-30T09:33:29.982Z,22.1
2024-04-30T09:34:46.216Z,22.1
2024-04-30T09:36:01.480Z,22.2
2024-04-30T09:37:17.000Z,22.3
2024-04-30T09:38:33.942Z,22.2
2024-04-30T09:39:50.000Z,22.3
2024-04-30T09:41:06.435Z,22.2
2024-04-30T09:42:22.658Z,22.3
2024-04-30T09:43:38.896Z,22.3
2024-04-30T09:44:55.145Z,22.4
2024-04-30T09:46:11.377Z,22.4
2024-04-30T09:47:27.000Z,22.4
2024-04-30T09:48:43.866Z,22.4
2024-04-30T09:50:00.101Z,22.4
2024-04-30T09:51:16.349Z,22.4
2024-04-30T09:52:31.000Z,22.5
2024-04-30T09:53:47.830Z,22.5
2024-04-30T09:55:04.082Z,22.6
2024-04-30T09:56:20.309Z,22.6
2024-04-30T09:57:36.557Z,22.6
2024-04-30T09:58:52.804Z,22.6
2024-04-30T10:00:09.031Z,22.6
2024-04-30T10:01:25.282Z,22.7
2024-04-30T10:02:41.000Z,22.7
2024-04-30T10:03:57.754Z,22.8
2024-04-30T10:05:13.990Z,22.8
2024-04-30T10:06:30.238Z,22.9
2024-04-30T10:07:46.465Z,22.9
2024-04-30T10:09:01.728Z,23
2024-04-30T10:10:17.969Z,23
2024-04-30T10:11:34.199Z,23
2024-04-30T10:12:50.384Z,23.1
2024-04-30T10:14:06.693Z,23.1
2024-04-30T10:15:22.917Z,23.1
2024-04-30T10:16:39.152Z,23.2
2024-04-30T10:17:55.000Z,23.3
2024-04-30T10:19:11.636Z,23.3
2024-04-30T10:20:27.000Z,23.3
2024-04-30T10:21:44.113Z,23.4
2024-04-30T10:23:00.367Z,23.4
2024-04-30T10:24:16.593Z,23.4
2024-04-30T10:25:31.000Z,23.5
2024-04-30T10:26:48.101Z,23.5
2024-04-30T10:28:04.329Z,23.5
2024-04-30T10:29:20.510Z,23.6
2024-04-30T10:30:36.821Z,23.6
2024-04-30T10:31:53.047Z,23.6
2024-04-30T10:33:09.000Z,23.6
2024-04-30T10:34:25.532Z,23.7
2024-04-30T10:35:41.776Z,23.7
2024-04-30T10:36:58.008Z,23.8
2024-04-30T10:38:14.261Z,23.8
2024-04-30T10:39:30.482Z,23.8
2024-04-30T10:40:46.000Z,23.8
2024-04-30T10:42:01.981Z,23.9
2024-04-30T10:43:18.000Z,23.9
2024-04-30T10:44:34.455Z,24
2024-04-30T10:45:50.000Z,24
2024-04-30T10:47:06.955Z,24
2024-04-30T10:48:23.174Z,24
2024-04-30T10:49:39.420Z,24.1
2024-04-30T10:50:55.653Z,24.2
2024-04-30T10:52:11.896Z,24.2
2024-04-30T10:53:28.000Z,24.2
2024-04-30T10:54:44.389Z,24.2
2024-04-30T10:56:00.000Z,24.2
2024-04-30T10:57:16.849Z,24.2
2024-04-30T10:58:32.111Z,24.3
2024-04-30T10:59:48.351Z,24.4
2024-04-30T11:01:04.594Z,24.5
2024-04-30T11:02:20.826Z,24.6
2024-04-30T11:03:37.080Z,24.7
2024-04-30T11:04:53.302Z,24.7
2024-04-30T11:06:09.000Z,24.7
2024-04-30T11:07:25.000Z,24.7
2024-04-30T11:08:42.000Z,24.7
2024-04-30T11:09:58.262Z,24.7
2024-04-30T11:11:14.509Z,24.7
2024-04-30T11:12:30.756Z,24.7
2024-04-30T11:13:46.000Z,24.8
2024-04-30T11:15:02.000Z,24.8
2024-04-30T11:16:18.000Z,24.8
2024-04-30T11:17:34.714Z,24.9
2024-04-30T11:18:50.000Z,24.9
2024-04-30T11:20:07.193Z,25
2024-04-30T11:21:23.429Z,25
2024-04-30T11:22:39.681Z,25.1
2024-04-30T11:23:55.000Z,25.1
2024-04-30T11:25:12.159Z,25.1
2024-04-30T11:26:28.000Z,25.2
2024-04-30T11:27:44.000Z,25.3
2024-04-30T11:29:00.000Z,25.3
2024-04-30T11:30:17.115Z,25.3
2024-04-30T11:31:32.363Z,25.2
2024-04-30T11:32:48.598Z,25.2
2024-04-30T11:34:04.843Z,25.2
2024-04-30T11:35:21.090Z,25.2
2024-04-30T11:36:37.312Z,25.3
2024-04-30T11:37:53.000Z,25.3
2024-04-30T11:39:09.000Z,25.3
2024-04-30T11:40:26.041Z,25.4
2024-04-30T11:41:42.280Z,25.4
2024-04-30T11:42:58.527Z,25.5
2024-04-30T11:44:14.761Z,25.5
2024-04-30T11:45:30.987Z,25.5
2024-04-30T11:46:47.000Z,25.5
2024-04-30T11:48:02.484Z,25.5
2024-04-30T11:49:18.000Z,25.5
2024-04-30T11:50:34.959Z,25.5
2024-04-30T11:51:51.201Z,25.5
2024-04-30T11:53:07.444Z,25.5
2024-04-30T11:54:23.686Z,25.6
2024-04-30T11:55:39.919Z,25.7
2024-04-30T11:56:56.160Z,25.7
2024-04-30T11:58:12.399Z,25.7
2024-04-30T11:59:28.000Z,25.8
2024-04-30T12:00:44.881Z,25.9
2024-04-30T12:02:01.000Z,25.9
2024-04-30T12:03:17.358Z,26
2024-04-30T12:04:32.540Z,26
2024-04-30T12:05:48.850Z,26.1
2024-04-30T12:07:05.089Z,26.1
2024-04-30T12:08:21.323Z,26.2
2024-04-30T12:09:37.581Z,26.3
2024-04-30T12:10:53.821Z,26.4
2024-04-30T12:12:09.000Z,26.4
2024-04-30T12:13:25.315Z,26.4
2024-04-30T12:14:41.549Z,26.5
2024-04-30T12:15:57.796Z,26.5
2024-04-30T12:17:14.034Z,26.5
2024-04-30T12:18:30.274Z,26.6
2024-04-30T12:19:46.509Z,26.6
2024-04-30T12:21:02.750Z,26.6
2024-04-30T12:22:18.000Z,26.6
2024-04-30T12:23:35.227Z,26.6
2024-04-30T12:24:51.000Z,26.6
2024-04-30T12:26:07.706Z,26.6
2024-04-30T12:27:23.954Z,26.7
2024-04-30T12:28:39.201Z,26.8
2024-04-30T12:29:55.452Z,26.8
2024-04-30T12:31:11.692Z,26.9
2024-04-30T12:32:27.928Z,26.9
2024-04-30T12:33:44.172Z,26.9
2024-04-30T12:35:00.000Z,27
2024-04-30T12:36:16.635Z,27.2
2024-04-30T12:37:32.000Z,27.2
2024-04-30T12:38:49.058Z,27.3
2024-04-30T12:40:05.364Z,27.3
2024-04-30T12:41:21.595Z,27.3
2024-04-30T12:42:37.000Z,27.3
2024-04-30T12:43:54.072Z,27.4
2024-04-30T12:45:09.338Z,27.4
2024-04-30T12:46:25.571Z,27.4
2024-04-30T12:47:41.807Z,27.4
2024-04-30T12:48:58.062Z,27.4
2024-04-30T12:50:14.304Z,27.4
2024-04-30T12:51:30.529Z,27.4
2024-04-30T12:52:46.000Z,27.4
2024-04-30T12:54:03.000Z,27.4
2024-04-30T12:55:19.000Z,27.4
2024-04-30T12:56:35.483Z,27.4
2024-04-30T12:57:51.738Z,27.5
2024-04-30T12:59:07.960Z,27.5
2024-04-30T13:00:24.214Z,27.6
2024-04-30T13:01:39.459Z,27.6
2024-04-30T13:02:55.699Z,27.6
2024-04-30T13:04:11.952Z,27.6
2024-04-30T13:05:28.000Z,27.6
2024-04-30T13:06:44.425Z,27.7
2024-04-30T13:08:00.000Z,27.7
2024-04-30T13:09:16.897Z,27.7
2024-04-30T13:10:33.000Z,27.7
2024-04-30T13:11:49.375Z,27.8
2024-04-30T13:13:05.628Z,27.8
2024-04-30T13:14:21.865Z,27.8
2024-04-30T13:15:38.000Z,27.9
2024-04-30T13:16:54.335Z,27.9
2024-04-30T13:18:10.000Z,27.9
2024-04-30T13:19:25.833Z,27.9
2024-04-30T13:20:42.070Z,28
2024-04-30T13:21:58.312Z,28
2024-04-30T13:23:14.000Z,28.1
2024-04-30T13:24:30.783Z,28.1
2024-04-30T13:25:47.023Z,28.1
2024-04-30T13:27:03.262Z,28.1
2024-04-30T13:28:19.000Z,28.1
2024-04-30T13:29:35.000Z,28.1
2024-04-30T13:30:51.000Z,28.1
2024-04-30T13:32:08.219Z,28.1
2024-04-30T13:33:24.000Z,28.1
2024-04-30T13:34:40.710Z,28.1
2024-04-30T13:35:55.000Z,28.1
2024-04-30T13:37:12.203Z,28.1
2024-04-30T13:38:28.438Z,28.1
2024-04-30T13:39:44.689Z,28.2
2024-04-30T13:41:00.000Z,28.2
2024-04-30T13:42:17.170Z,28.3
2024-04-30T13:43:33.000Z,28.3
2024-04-30T13:44:49.000Z,28.3
2024-04-30T13:46:05.000Z,28.2
2024-04-30T13:47:22.117Z,28.2
2024-04-30T13:48:38.364Z,28.2
2024-04-30T13:49:54.606Z,28.2
2024-04-30T13:51:10.835Z,28.2
2024-04-30T13:52:26.093Z,28.2
2024-04-30T13:53:42.000Z,28.2
2024-04-30T13:54:58.000Z,28.2
2024-04-30T13:56:14.816Z,28.3
2024-04-30T13:57:31.060Z,28.3
2024-04-30T13:58:47.290Z,28.3
2024-04-30T14:00:03.540Z,28.4
2024-04-30T14:01:19.774Z,28.4
2024-04-30T14:02:36.014Z,28.5
2024-04-30T14:03:52.000Z,28.5
2024-04-30T14:05:08.000Z,28.5
2024-04-30T14:06:24.000Z,28.6
2024-04-30T14:07:40.971Z,28.5
2024-04-30T14:08:56.233Z,28.5
2024-04-30T14:10:12.389Z,28.6
2024-04-30T14:11:28.707Z,28.6
2024-04-30T14:12:44.956Z,28.6
2024-04-30T14:14:01.000Z,28.6
2024-04-30T14:15:17.418Z,28.6
2024-04-30T14:16:33.000Z,28.7
2024-04-30T14:17:49.000Z,28.6
2024-04-30T14:19:06.000Z,28.7
2024-04-30T14:20:22.379Z,28.7
2024-04-30T14:21:38.616Z,28.8
2024-04-30T14:22:54.867Z,28.7
2024-04-30T14:24:11.096Z,28.8
2024-04-30T14:25:26.000Z,28.8
2024-04-30T14:26:42.000Z,28.7
2024-04-30T14:27:58.845Z,28.8
2024-04-30T14:29:15.000Z,28.8
2024-04-30T14:30:31.312Z,28.8
2024-04-30T14:31:47.559Z,28.8
2024-04-30T14:33:03.791Z,28.8
2024-04-30T14:34:20.043Z,28.8
2024-04-30T14:35:36.289Z,28.8
2024-04-30T14:36:52.000Z,28.9
2024-04-30T14:38:08.764Z,28.9
2024-04-30T14:39:24.000Z,28.9
2024-04-30T14:40:41.233Z,28.9
2024-04-30T14:41:57.000Z,28.9
2024-04-30T14:43:13.834Z,28.9
2024-04-30T14:45:46.319Z,28.9
2024-04-30T14:47:02.553Z,29
2024-04-30T14:48:18.800Z,28.9
2024-04-30T14:49:35.000Z,28.9
2024-04-30T14:50:51.287Z,29
2024-04-30T14:52:07.000Z,29
2024-04-30T14:53:23.765Z,29.1
2024-04-30T14:54:39.994Z,29.1
2024-04-30T14:55:56.230Z,29.1
2024-04-30T14:57:12.000Z,29.2
2024-04-30T14:58:27.743Z,29.3
2024-04-30T14:59:43.000Z,29.3
2024-04-30T15:01:00.214Z,29.3
2024-04-30T15:02:16.000Z,29.3
2024-04-30T15:03:32.701Z,29.2
2024-04-30T15:04:48.927Z,29.2
2024-04-30T15:06:05.169Z,29.2
2024-04-30T15:07:21.000Z,29.2
2024-04-30T15:08:37.666Z,29.2
2024-04-30T15:09:53.888Z,29.3
2024-04-30T15:11:10.000Z,29.3
2024-04-30T15:12:26.000Z,29.3
2024-04-30T15:13:42.000Z,29.4
2024-04-30T15:14:57.000Z,29.4
2024-04-30T15:16:14.122Z,29.4
2024-04-30T15:17:30.355Z,29.5
2024-04-30T15:18:46.590Z,29.6
2024-04-30T15:20:02.829Z,29.6
2024-04-30T15:21:19.076Z,29.6
2024-04-30T15:22:35.000Z,29.6
2024-04-30T15:23:51.556Z,29.7
2024-04-30T15:25:07.000Z,29.8
2024-04-30T15:26:24.043Z,29.8
2024-04-30T15:27:40.272Z,29.9
2024-04-30T15:28:56.522Z,29.9
2024-04-30T15:30:12.000Z,30
2024-04-30T15:31:28.012Z,30
2024-04-30T15:32:44.000Z,30.1
2024-04-30T15:34:00.000Z,30.2
2024-04-30T15:35:16.000Z,30.2
2024-04-30T15:36:32.000Z,30.3
2024-04-30T15:37:49.218Z,30.3
2024-04-30T15:39:05.452Z,30.4
2024-04-30T15:40:21.000Z,30.3
2024-04-30T15:41:37.000Z,30.5
2024-04-30T15:42:54.000Z,30.6
2024-04-30T15:44:10.000Z,30.7
2024-04-30T15:45:26.000Z,30.9
2024-04-30T15:46:42.887Z,30.9
2024-04-30T15:47:58.000Z,31
2024-04-30T15:49:14.390Z,31.1
2024-04-30T15:50:30.640Z,31.2
2024-04-30T15:51:46.866Z,31.3
2024-04-30T15:53:03.000Z,31.7
2024-04-30T15:54:19.341Z,32.4
2024-04-30T15:55:35.579Z,33.3
2024-04-30T15:56:51.000Z,34
2024-04-30T15:58:08.000Z,34.7
2024-04-30T15:59:24.303Z,35.2
2024-04-30T16:01:56.794Z,36
2024-04-30T16:03:13.018Z,36.2
2024-04-30T16:04:28.280Z,36.4
2024-04-30T16:05:44.000Z,36.7
2024-04-30T16:07:00.754Z,37.1
2024-04-30T16:08:16.000Z,37.3
2024-04-30T16:09:33.238Z,37.5
2024-04-30T16:10:49.000Z,37.7
2024-04-30T16:12:05.000Z,37.9
2024-04-30T16:13:21.965Z,38.1
2024-04-30T16:14:38.205Z,38.3
2024-04-30T16:15:54.000Z,38.4
2024-04-30T16:17:10.672Z,38.4
2024-04-30T16:18:26.000Z,38.5
2024-04-30T16:19:43.157Z,38.4
2024-04-30T16:20:58.417Z,38.3
2024-04-30T16:22:14.593Z,38.2
2024-04-30T16:23:30.908Z,37.9
2024-04-30T16:24:47.130Z,37.9
2024-04-30T16:26:03.383Z,37.8
2024-04-30T16:27:18.632Z,37.6
2024-04-30T16:28:34.000Z,37.3
2024-04-30T16:29:51.000Z,37.4
2024-04-30T16:31:07.000Z,37.4
2024-04-30T16:32:23.612Z,37.5
2024-04-30T16:33:39.000Z,37.3
2024-04-30T16:34:56.000Z,37.1
2024-04-30T16:36:12.315Z,36.8
2024-04-30T16:37:28.559Z,36.9
2024-04-30T16:38:44.000Z,37.1
2024-04-30T16:40:01.000Z,37.2
2024-04-30T16:41:17.000Z,37.2
2024-04-30T16:42:33.000Z,37.1
2024-04-30T16:43:48.000Z,36.9
2024-04-30T16:45:05.000Z,37
2024-04-30T16:46:21.272Z,37.2
2024-04-30T16:47:37.518Z,37.5
2024-04-30T16:48:53.746Z,37.7
2024-04-30T16:50:09.990Z,37.9
2024-04-30T16:51:26.000Z,37.9
2024-04-30T16:52:42.000Z,37.9
2024-04-30T16:53:58.000Z,38
2024-04-30T16:55:14.952Z,37.9
2024-04-30T16:56:31.198Z,38
2024-04-30T16:57:47.436Z,38.2
2024-04-30T16:59:03.607Z,38.2
2024-04-30T17:00:18.936Z,38.1
2024-04-30T17:01:35.000Z,38
2024-04-30T17:02:51.422Z,37.9
2024-04-30T17:04:07.000Z,37.8
2024-04-30T17:05:23.000Z,37.6